Agios Nikolas — SVAV5 — position and weather

sailwx.info

Track history (hours):
 
Tides and Currents Weather Stations Pressure Air Temp Water Temp Dewpoint Dewpoint Depression Visibility Wind Speed Wind Dir Waves Ship Positions

Agios Nikolas

Last reported at 2018-Feb-21 22:45 UTC. Time now 2018-Feb-22 13:05 UTC.
Position N 46°15' E 030°55'.

Length 225 m; draft 10.7 m.

Type: Cargo ship. MMSI: 240963000.

Date/timePositionNaut miles runAvg speedWind from/ knotsBaromVisibWave heightAir tempDewpointWater temp
2018-Feb-21 22:45N 46°15' E 030°55'313.3
2018-Feb-21 22:29N 46°18' E 030°55'713.4
2018-Feb-21 21:58N 46°25' E 030°55'612.1
2018-Feb-21 21:30N 46°31' E 030°55'17 0.9
2018-Feb-21 02:18N 46°35' E 031°19'0 0.0
2018-Feb-21 01:18N 46°35' E 031°19'0 0.0
2018-Feb-21 01:00N 46°35' E 031°19'5 0.2
2018-Feb-19 15:03N 46°35' E 031°27'3 7.7
2018-Feb-19 14:42N 46°35' E 031°31'2 9.0
2018-Feb-19 14:30N 46°35' E 031°33'5 9.8
2018-Feb-19 14:00N 46°36' E 031°40'5 9.9
2018-Feb-19 13:28N 46°36' E 031°48'5 9.7
2018-Feb-19 13:00N 46°38' E 031°54'4 9.0
2018-Feb-19 12:30N 46°42' E 031°56'4 8.4
2018-Feb-19 12:00N 46°46' E 031°54'4 8.8
2018-Feb-19 11:30N 46°50' E 031°56'5 9.5
2018-Feb-19 11:00N 46°53' E 032°00'3 5.3
2018-Feb-19 10:30N 46°56' E 032°00'1 2.1
2018-Feb-19 09:59N 46°57' E 031°59'0 0.0
2018-Feb-19 09:30N 46°57' E 031°59'0 0.0
2018-Feb-19 09:00N 46°57' E 031°59'0 0.0
2018-Feb-19 08:24N 46°57' E 031°59'0 0.0
2018-Feb-19 08:00N 46°57' E 031°59'0 0.0
2018-Feb-19 07:30N 46°57' E 031°59'0 0.0
2018-Feb-19 07:00N 46°57' E 031°59'0 0.0
2018-Feb-19 06:30N 46°57' E 031°59'0 0.0
2018-Feb-19 06:00N 46°57' E 031°59'0 0.0
2018-Feb-19 05:30N 46°57' E 031°59'0 0.0
2018-Feb-19 05:00N 46°57' E 031°59'0 0.0
2018-Feb-19 04:30N 46°57' E 031°59'0 0.0
2018-Feb-19 04:00N 46°57' E 031°59'0 0.0
2018-Feb-19 03:30N 46°57' E 031°59'0 0.0
2018-Feb-19 03:00N 46°56' E 031°59'0 0.0
2018-Feb-19 02:30N 46°57' E 031°59'0 0.0
2018-Feb-19 02:00N 46°57' E 031°59'0 0.0
2018-Feb-19 01:30N 46°57' E 031°59'0 0.0
2018-Feb-19 01:00N 46°57' E 031°59'0 0.0
2018-Feb-19 00:30N 46°56' E 031°59'0 0.0
2018-Feb-19 00:00N 46°57' E 031°59'0 0.0
2018-Feb-18 23:30N 46°57' E 031°59'0 0.0
2018-Feb-18 23:00N 46°57' E 031°59'0 0.0
2018-Feb-18 22:30N 46°57' E 031°59'0 0.0
2018-Feb-18 22:00N 46°56' E 031°59'0 0.0
2018-Feb-18 21:30N 46°57' E 031°59'0 0.0
2018-Feb-18 21:00N 46°56' E 031°59'0 0.0
2018-Feb-18 20:30N 46°57' E 031°59'0 0.0
2018-Feb-18 20:00N 46°57' E 031°59'0 0.0
2018-Feb-18 19:30N 46°57' E 031°59'0 0.0
2018-Feb-18 19:00N 46°57' E 031°59'0 0.0
2018-Feb-18 18:30N 46°57' E 031°59'0 0.0
2018-Feb-18 18:00N 46°57' E 031°59'0 0.0
2018-Feb-18 17:30N 46°57' E 031°59'0 0.0
2018-Feb-18 17:00N 46°57' E 031°59'0 0.0
2018-Feb-18 16:30N 46°57' E 031°59'0 0.0
2018-Feb-18 16:00N 46°57' E 031°59'0 0.0
2018-Feb-18 15:30N 46°57' E 031°59'0 0.0
2018-Feb-18 15:00N 46°57' E 031°59'0 0.0
2018-Feb-18 14:30N 46°57' E 031°59'0 0.0
2018-Feb-18 14:00N 46°57' E 031°59'0 0.0
2018-Feb-18 13:30N 46°57' E 031°59'0 0.0
2018-Feb-18 13:00N 46°57' E 031°59'0 0.0
2018-Feb-18 12:30N 46°57' E 031°59'0 0.0
2018-Feb-18 12:00N 46°57' E 031°59'0 0.0
2018-Feb-18 11:30N 46°57' E 031°59'0 0.0
2018-Feb-18 11:00N 46°57' E 031°59'0 0.0
2018-Feb-18 10:30N 46°57' E 031°59'0 0.0
2018-Feb-18 10:00N 46°57' E 031°59'0 0.0
2018-Feb-18 09:30N 46°57' E 031°59'0 0.0
2018-Feb-18 09:00N 46°57' E 031°59'0 0.0
2018-Feb-18 08:30N 46°57' E 031°59'0 0.0
2018-Feb-18 08:00N 46°57' E 031°59'0 0.0
2018-Feb-18 07:30N 46°57' E 031°59'0 0.0
2018-Feb-18 07:00N 46°57' E 031°59'0 0.0
2018-Feb-18 06:30N 46°57' E 031°59'0 0.0
2018-Feb-18 06:00N 46°57' E 031°59'0 0.0
2018-Feb-18 05:30N 46°57' E 031°59'0 0.0
2018-Feb-18 05:00N 46°57' E 031°59'0 0.0
2018-Feb-18 04:30N 46°57' E 031°59'0 0.0
2018-Feb-18 04:00N 46°57' E 031°59'0 0.0
2018-Feb-18 03:30N 46°57' E 031°59'0 0.0
2018-Feb-18 03:00N 46°57' E 031°59'0 0.0
2018-Feb-18 02:30N 46°57' E 031°59'0 0.0
2018-Feb-18 02:00N 46°56' E 031°59'0 0.0
2018-Feb-18 01:30N 46°57' E 031°59'0 0.0
2018-Feb-18 01:00N 46°56' E 031°59'0 0.0
2018-Feb-18 00:30N 46°56' E 031°59'0 0.0
2018-Feb-18 00:00N 46°57' E 031°59'0 0.0
2018-Feb-17 23:30N 46°56' E 031°59'0 0.0
2018-Feb-17 23:00N 46°57' E 031°59'0 0.0
2018-Feb-17 22:30N 46°57' E 031°59'0 0.0
2018-Feb-17 22:00N 46°57' E 031°59'0 0.0
2018-Feb-17 21:30N 46°57' E 031°59'0 0.0
2018-Feb-17 21:00N 46°57' E 031°59'0 0.0
2018-Feb-17 20:30N 46°57' E 031°59'0 0.0
2018-Feb-17 20:00N 46°57' E 031°59'0 0.0
2018-Feb-17 19:30N 46°57' E 031°59'0 0.0
2018-Feb-17 19:00N 46°57' E 031°59'0 0.0
2018-Feb-17 18:30N 46°57' E 031°59'0 0.0
2018-Feb-17 18:00N 46°56' E 031°59'0 0.0
2018-Feb-17 17:30N 46°57' E 031°59'0 0.0
2018-Feb-17 17:00N 46°57' E 031°59'0 0.0
2018-Feb-17 16:30N 46°57' E 031°59'0 0.0
2018-Feb-17 16:00N 46°57' E 031°59'0 0.0
2018-Feb-17 15:30N 46°57' E 031°59'0 0.0
2018-Feb-17 15:00N 46°57' E 031°59'0 0.0
2018-Feb-17 14:30N 46°57' E 031°59'0 0.0
2018-Feb-17 14:00N 46°57' E 031°59'0 0.0
2018-Feb-17 13:30N 46°57' E 031°59'0 0.0
2018-Feb-17 13:00N 46°57' E 031°59'0 0.0
2018-Feb-17 12:30N 46°56' E 031°59'0 0.0
2018-Feb-17 12:00N 46°57' E 031°59'0 0.0
2018-Feb-17 11:30N 46°57' E 031°59'0 0.0
2018-Feb-17 11:00N 46°56' E 031°59'0 0.0
2018-Feb-17 10:30N 46°57' E 031°59'0 0.0
2018-Feb-17 10:00N 46°57' E 031°59'0 0.0
2018-Feb-17 09:30N 46°57' E 031°59'0 0.0
2018-Feb-17 09:00N 46°57' E 031°59'0 0.5
2018-Feb-17 08:31N 46°56' E 031°59'2 3.5
2018-Feb-17 08:01N 46°55' E 032°01'510.3
2018-Feb-17 07:31N 46°51' E 031°57'5 9.5
2018-Feb-17 07:00N 46°47' E 031°53'4 8.3
2018-Feb-17 06:30N 46°44' E 031°56'5 9.1
2018-Feb-17 06:01N 46°39' E 031°56'5 9.2
2018-Feb-17 05:31N 46°36' E 031°50'510.1
2018-Feb-17 05:01N 46°36' E 031°43'5 9.6
2018-Feb-17 04:30N 46°35' E 031°36'4 8.7
2018-Feb-17 04:00N 46°36' E 031°30'5 9.9
2018-Feb-17 03:29N 46°35' E 031°22'611.4
2018-Feb-17 02:59N 46°35' E 031°14'511.3
2018-Feb-17 02:30N 46°34' E 031°06'4 8.7
2018-Feb-17 02:01N 46°33' E 031°00'4 8.0
2018-Feb-17 01:30N 46°30' E 030°57'3 6.0
2018-Feb-17 01:01N 46°27' E 030°57'4 8.7
2018-Feb-17 00:31N 46°23' E 030°57'4 7.2
2018-Feb-17 00:01N 46°19' E 030°59'3 7.0
2018-Feb-16 23:31N 46°19' E 031°04'0 0.6
2018-Feb-16 22:55N 46°20' E 031°04'0 0.0
2018-Feb-16 22:28N 46°20' E 031°04'0 0.0
2018-Feb-16 21:55N 46°20' E 031°04'0 0.0
2018-Feb-16 21:28N 46°20' E 031°04'0 0.0
2018-Feb-16 20:58N 46°20' E 031°04'0 0.1
2018-Feb-16 20:28N 46°20' E 031°04'0 0.0
2018-Feb-16 19:58N 46°20' E 031°04'0 0.0
2018-Feb-16 19:25N 46°20' E 031°04'0 0.0
2018-Feb-16 18:58N 46°20' E 031°04'0 0.0
2018-Feb-16 18:28N 46°20' E 031°04'0 0.0
2018-Feb-16 17:58N 46°20' E 031°04'0 0.0
2018-Feb-16 17:28N 46°20' E 031°04'0 0.0
2018-Feb-16 16:58N 46°20' E 031°04'0 0.0
2018-Feb-16 16:22N 46°20' E 031°04'0 0.0
2018-Feb-16 15:58N 46°20' E 031°04'0 0.0
2018-Feb-16 15:28N 46°20' E 031°04'0 0.0
2018-Feb-16 14:58N 46°20' E 031°04'0 0.0
2018-Feb-16 14:13N 46°20' E 031°04'0 0.0
2018-Feb-16 11:28N 46°20' E 031°04'0 0.0
2018-Feb-16 09:25N 46°20' E 031°04'0 0.0
2018-Feb-16 07:28N 46°20' E 031°04'0 0.0
2018-Feb-16 04:10N 46°20' E 031°04'0 0.0
2018-Feb-16 03:52N 46°20' E 031°04'0 0.0
2018-Feb-14 11:57N 46°20' E 031°04'0 0.0
2018-Feb-13 21:53N 46°20' E 031°04'1 3.4
2018-Feb-13 21:30N 46°20' E 031°02'510.0
2018-Feb-13 21:00N 46°22' E 030°55'611.4
2018-Feb-13 20:30N 46°28' E 030°55'5 9.6
2018-Feb-13 20:00N 46°33' E 030°57'3 6.7
2018-Feb-13 19:30N 46°35' E 031°01'  
Track history (hours):
 
Tides and Currents Weather Stations Pressure Air Temp Water Temp Dewpoint Dewpoint Depression Visibility Wind Speed Wind Dir Waves Ship Positions

Agios Nikolas

Last reported at 2018-Feb-21 22:45 UTC. Time now 2018-Feb-22 13:05 UTC.
Position N 46°15' E 030°55'.

Length 225 m; draft 10.7 m.

Type: Cargo ship. MMSI: 240963000.

Date/timePositionNaut miles runAvg speedWind from/ knotsBaromVisibWave heightAir tempDewpointWater temp
2018-Feb-21 22:45N 46°15' E 030°55'313.3
2018-Feb-21 22:29N 46°18' E 030°55'713.4
2018-Feb-21 21:58N 46°25' E 030°55'612.1
2018-Feb-21 21:30N 46°31' E 030°55'17 0.9
2018-Feb-21 02:18N 46°35' E 031°19'0 0.0
2018-Feb-21 01:18N 46°35' E 031°19'0 0.0
2018-Feb-21 01:00N 46°35' E 031°19'5 0.2
2018-Feb-19 15:03N 46°35' E 031°27'3 7.7
2018-Feb-19 14:42N 46°35' E 031°31'2 9.0
2018-Feb-19 14:30N 46°35' E 031°33'5 9.8
2018-Feb-19 14:00N 46°36' E 031°40'5 9.9
2018-Feb-19 13:28N 46°36' E 031°48'5 9.7
2018-Feb-19 13:00N 46°38' E 031°54'4 9.0
2018-Feb-19 12:30N 46°42' E 031°56'4 8.4
2018-Feb-19 12:00N 46°46' E 031°54'4 8.8
2018-Feb-19 11:30N 46°50' E 031°56'5 9.5
2018-Feb-19 11:00N 46°53' E 032°00'3 5.3
2018-Feb-19 10:30N 46°56' E 032°00'1 2.1
2018-Feb-19 09:59N 46°57' E 031°59'0 0.0
2018-Feb-19 09:30N 46°57' E 031°59'0 0.0
2018-Feb-19 09:00N 46°57' E 031°59'0 0.0
2018-Feb-19 08:24N 46°57' E 031°59'0 0.0
2018-Feb-19 08:00N 46°57' E 031°59'0 0.0
2018-Feb-19 07:30N 46°57' E 031°59'0 0.0
2018-Feb-19 07:00N 46°57' E 031°59'0 0.0
2018-Feb-19 06:30N 46°57' E 031°59'0 0.0
2018-Feb-19 06:00N 46°57' E 031°59'0 0.0
2018-Feb-19 05:30N 46°57' E 031°59'0 0.0
2018-Feb-19 05:00N 46°57' E 031°59'0 0.0
2018-Feb-19 04:30N 46°57' E 031°59'0 0.0
2018-Feb-19 04:00N 46°57' E 031°59'0 0.0
2018-Feb-19 03:30N 46°57' E 031°59'0 0.0
2018-Feb-19 03:00N 46°56' E 031°59'0 0.0
2018-Feb-19 02:30N 46°57' E 031°59'0 0.0
2018-Feb-19 02:00N 46°57' E 031°59'0 0.0
2018-Feb-19 01:30N 46°57' E 031°59'0 0.0
2018-Feb-19 01:00N 46°57' E 031°59'0 0.0
2018-Feb-19 00:30N 46°56' E 031°59'0 0.0
2018-Feb-19 00:00N 46°57' E 031°59'0 0.0
2018-Feb-18 23:30N 46°57' E 031°59'0 0.0
2018-Feb-18 23:00N 46°57' E 031°59'0 0.0
2018-Feb-18 22:30N 46°57' E 031°59'0 0.0
2018-Feb-18 22:00N 46°56' E 031°59'0 0.0
2018-Feb-18 21:30N 46°57' E 031°59'0 0.0
2018-Feb-18 21:00N 46°56' E 031°59'0 0.0
2018-Feb-18 20:30N 46°57' E 031°59'0 0.0
2018-Feb-18 20:00N 46°57' E 031°59'0 0.0
2018-Feb-18 19:30N 46°57' E 031°59'0 0.0
2018-Feb-18 19:00N 46°57' E 031°59'0 0.0
2018-Feb-18 18:30N 46°57' E 031°59'0 0.0
2018-Feb-18 18:00N 46°57' E 031°59'0 0.0
2018-Feb-18 17:30N 46°57' E 031°59'0 0.0
2018-Feb-18 17:00N 46°57' E 031°59'0 0.0
2018-Feb-18 16:30N 46°57' E 031°59'0 0.0
2018-Feb-18 16:00N 46°57' E 031°59'0 0.0
2018-Feb-18 15:30N 46°57' E 031°59'0 0.0
2018-Feb-18 15:00N 46°57' E 031°59'0 0.0
2018-Feb-18 14:30N 46°57' E 031°59'0 0.0
2018-Feb-18 14:00N 46°57' E 031°59'0 0.0
2018-Feb-18 13:30N 46°57' E 031°59'0 0.0
2018-Feb-18 13:00N 46°57' E 031°59'0 0.0
2018-Feb-18 12:30N 46°57' E 031°59'0 0.0
2018-Feb-18 12:00N 46°57' E 031°59'0 0.0
2018-Feb-18 11:30N 46°57' E 031°59'0 0.0
2018-Feb-18 11:00N 46°57' E 031°59'0 0.0
2018-Feb-18 10:30N 46°57' E 031°59'0 0.0
2018-Feb-18 10:00N 46°57' E 031°59'0 0.0
2018-Feb-18 09:30N 46°57' E 031°59'0 0.0
2018-Feb-18 09:00N 46°57' E 031°59'0 0.0
2018-Feb-18 08:30N 46°57' E 031°59'0 0.0
2018-Feb-18 08:00N 46°57' E 031°59'0 0.0
2018-Feb-18 07:30N 46°57' E 031°59'0 0.0
2018-Feb-18 07:00N 46°57' E 031°59'0 0.0
2018-Feb-18 06:30N 46°57' E 031°59'0 0.0
2018-Feb-18 06:00N 46°57' E 031°59'0 0.0
2018-Feb-18 05:30N 46°57' E 031°59'0 0.0
2018-Feb-18 05:00N 46°57' E 031°59'0 0.0
2018-Feb-18 04:30N 46°57' E 031°59'0 0.0
2018-Feb-18 04:00N 46°57' E 031°59'0 0.0
2018-Feb-18 03:30N 46°57' E 031°59'0 0.0
2018-Feb-18 03:00N 46°57' E 031°59'0 0.0
2018-Feb-18 02:30N 46°57' E 031°59'0 0.0
2018-Feb-18 02:00N 46°56' E 031°59'0 0.0
2018-Feb-18 01:30N 46°57' E 031°59'0 0.0
2018-Feb-18 01:00N 46°56' E 031°59'0 0.0
2018-Feb-18 00:30N 46°56' E 031°59'0 0.0
2018-Feb-18 00:00N 46°57' E 031°59'0 0.0
2018-Feb-17 23:30N 46°56' E 031°59'0 0.0
2018-Feb-17 23:00N 46°57' E 031°59'0 0.0
2018-Feb-17 22:30N 46°57' E 031°59'0 0.0
2018-Feb-17 22:00N 46°57' E 031°59'0 0.0
2018-Feb-17 21:30N 46°57' E 031°59'0 0.0
2018-Feb-17 21:00N 46°57' E 031°59'0 0.0
2018-Feb-17 20:30N 46°57' E 031°59'0 0.0
2018-Feb-17 20:00N 46°57' E 031°59'0 0.0
2018-Feb-17 19:30N 46°57' E 031°59'0 0.0
2018-Feb-17 19:00N 46°57' E 031°59'0 0.0
2018-Feb-17 18:30N 46°57' E 031°59'0 0.0
2018-Feb-17 18:00N 46°56' E 031°59'0 0.0
2018-Feb-17 17:30N 46°57' E 031°59'0 0.0
2018-Feb-17 17:00N 46°57' E 031°59'0 0.0
2018-Feb-17 16:30N 46°57' E 031°59'0 0.0
2018-Feb-17 16:00N 46°57' E 031°59'0 0.0
2018-Feb-17 15:30N 46°57' E 031°59'0 0.0
2018-Feb-17 15:00N 46°57' E 031°59'0 0.0
2018-Feb-17 14:30N 46°57' E 031°59'0 0.0
2018-Feb-17 14:00N 46°57' E 031°59'0 0.0
2018-Feb-17 13:30N 46°57' E 031°59'0 0.0
2018-Feb-17 13:00N 46°57' E 031°59'0 0.0
2018-Feb-17 12:30N 46°56' E 031°59'0 0.0
2018-Feb-17 12:00N 46°57' E 031°59'0 0.0
2018-Feb-17 11:30N 46°57' E 031°59'0 0.0
2018-Feb-17 11:00N 46°56' E 031°59'0 0.0
2018-Feb-17 10:30N 46°57' E 031°59'0 0.0
2018-Feb-17 10:00N 46°57' E 031°59'0 0.0
2018-Feb-17 09:30N 46°57' E 031°59'0 0.0
2018-Feb-17 09:00N 46°57' E 031°59'0 0.5
2018-Feb-17 08:31N 46°56' E 031°59'2 3.5
2018-Feb-17 08:01N 46°55' E 032°01'510.3
2018-Feb-17 07:31N 46°51' E 031°57'5 9.5
2018-Feb-17 07:00N 46°47' E 031°53'4 8.3
2018-Feb-17 06:30N 46°44' E 031°56'5 9.1
2018-Feb-17 06:01N 46°39' E 031°56'5 9.2
2018-Feb-17 05:31N 46°36' E 031°50'510.1
2018-Feb-17 05:01N 46°36' E 031°43'5 9.6
2018-Feb-17 04:30N 46°35' E 031°36'4 8.7
2018-Feb-17 04:00N 46°36' E 031°30'5 9.9
2018-Feb-17 03:29N 46°35' E 031°22'611.4
2018-Feb-17 02:59N 46°35' E 031°14'511.3
2018-Feb-17 02:30N 46°34' E 031°06'4 8.7
2018-Feb-17 02:01N 46°33' E 031°00'4 8.0
2018-Feb-17 01:30N 46°30' E 030°57'3 6.0
2018-Feb-17 01:01N 46°27' E 030°57'4 8.7
2018-Feb-17 00:31N 46°23' E 030°57'4 7.2
2018-Feb-17 00:01N 46°19' E 030°59'3 7.0
2018-Feb-16 23:31N 46°19' E 031°04'0 0.6
2018-Feb-16 22:55N 46°20' E 031°04'0 0.0
2018-Feb-16 22:28N 46°20' E 031°04'0 0.0
2018-Feb-16 21:55N 46°20' E 031°04'0 0.0
2018-Feb-16 21:28N 46°20' E 031°04'0 0.0
2018-Feb-16 20:58N 46°20' E 031°04'0 0.1
2018-Feb-16 20:28N 46°20' E 031°04'0 0.0
2018-Feb-16 19:58N 46°20' E 031°04'0 0.0
2018-Feb-16 19:25N 46°20' E 031°04'0 0.0
2018-Feb-16 18:58N 46°20' E 031°04'0 0.0
2018-Feb-16 18:28N 46°20' E 031°04'0 0.0
2018-Feb-16 17:58N 46°20' E 031°04'0 0.0
2018-Feb-16 17:28N 46°20' E 031°04'0 0.0
2018-Feb-16 16:58N 46°20' E 031°04'0 0.0
2018-Feb-16 16:22N 46°20' E 031°04'0 0.0
2018-Feb-16 15:58N 46°20' E 031°04'0 0.0
2018-Feb-16 15:28N 46°20' E 031°04'0 0.0
2018-Feb-16 14:58N 46°20' E 031°04'0 0.0
2018-Feb-16 14:13N 46°20' E 031°04'0 0.0
2018-Feb-16 11:28N 46°20' E 031°04'0 0.0
2018-Feb-16 09:25N 46°20' E 031°04'0 0.0
2018-Feb-16 07:28N 46°20' E 031°04'0 0.0
2018-Feb-16 04:10N 46°20' E 031°04'0 0.0
2018-Feb-16 03:52N 46°20' E 031°04'0 0.0
2018-Feb-14 11:57N 46°20' E 031°04'0 0.0
2018-Feb-13 21:53N 46°20' E 031°04'1 3.4
2018-Feb-13 21:30N 46°20' E 031°02'510.0
2018-Feb-13 21:00N 46°22' E 030°55'611.4
2018-Feb-13 20:30N 46°28' E 030°55'5 9.6
2018-Feb-13 20:00N 46°33' E 030°57'3 6.7
2018-Feb-13 19:30N 46°35' E 031°01'  

Dump ship's entire track history